sensor_id;sensor_type;location;lat;lon;timestamp;pressure;altitude;pressure_sealevel;temperature;humidity
59417;BME280;45222;52.458;20.914;2022-09-13T00:00:22;100566.86;;;6.85;84.51
59417;BME280;45222;52.458;20.914;2022-09-13T00:03:45;100564.80;;;6.90;84.79
59417;BME280;45222;52.458;20.914;2022-09-13T00:06:48;100560.39;;;6.95;84.72
59417;BME280;45222;52.458;20.914;2022-09-13T00:09:50;100556.90;;;7.00;84.58
59417;BME280;45222;52.458;20.914;2022-09-13T00:12:53;100556.51;;;7.01;84.44
59417;BME280;45222;52.458;20.914;2022-09-13T00:15:56;100552.50;;;7.05;84.46
59417;BME280;45222;52.458;20.914;2022-09-13T00:18:59;100554.63;;;7.10;84.50
59417;BME280;45222;52.458;20.914;2022-09-13T00:22:02;100552.94;;;7.14;84.47
59417;BME280;45222;52.458;20.914;2022-09-13T00:25:08;100553.38;;;7.16;84.57
59417;BME280;45222;52.458;20.914;2022-09-13T00:28:11;100554.07;;;7.17;84.14
59417;BME280;45222;52.458;20.914;2022-09-13T00:31:14;100554.58;;;7.12;84.14
59417;BME280;45222;52.458;20.914;2022-09-13T00:34:16;100560.15;;;7.09;84.13
59417;BME280;45222;52.458;20.914;2022-09-13T00:37:19;100556.89;;;7.11;84.25
59417;BME280;45222;52.458;20.914;2022-09-13T00:40:21;100554.89;;;7.13;84.17
59417;BME280;45222;52.458;20.914;2022-09-13T00:43:41;100552.77;;;7.13;84.15
59417;BME280;45222;52.458;20.914;2022-09-13T00:46:47;100552.05;;;7.14;84.35
59417;BME280;45222;52.458;20.914;2022-09-13T00:49:52;100550.89;;;7.11;84.05
59417;BME280;45222;52.458;20.914;2022-09-13T00:53:04;100554.73;;;7.07;84.15
59417;BME280;45222;52.458;20.914;2022-09-13T00:56:16;100554.66;;;7.04;83.94
59417;BME280;45222;52.458;20.914;2022-09-13T00:59:29;100552.77;;;7.02;84.41
59417;BME280;45222;52.458;20.914;2022-09-13T01:02:38;100553.20;;;7.05;84.65
59417;BME280;45222;52.458;20.914;2022-09-13T01:05:45;100550.38;;;7.05;83.88
59417;BME280;45222;52.458;20.914;2022-09-13T01:08:50;100560.77;;;6.94;83.66
59417;BME280;45222;52.458;20.914;2022-09-13T01:11:59;100565.63;;;6.86;83.91
59417;BME280;45222;52.458;20.914;2022-09-13T01:15:07;100559.25;;;6.80;83.82
59417;BME280;45222;52.458;20.914;2022-09-13T01:18:10;100557.85;;;6.80;84.12
59417;BME280;45222;52.458;20.914;2022-09-13T01:21:37;100557.04;;;6.77;84.25
59417;BME280;45222;52.458;20.914;2022-09-13T01:28:34;100555.39;;;6.68;84.25
59417;BME280;45222;52.458;20.914;2022-09-13T01:31:44;100549.73;;;6.62;84.02
59417;BME280;45222;52.458;20.914;2022-09-13T01:34:59;100554.31;;;6.55;84.07
59417;BME280;45222;52.458;20.914;2022-09-13T01:38:17;100551.11;;;6.50;84.08
59417;BME280;45222;52.458;20.914;2022-09-13T01:41:42;100551.53;;;6.48;84.04
59417;BME280;45222;52.458;20.914;2022-09-13T01:45:05;100547.24;;;6.43;84.05
59417;BME280;45222;52.458;20.914;2022-09-13T01:48:15;100547.17;;;6.39;84.04
59417;BME280;45222;52.458;20.914;2022-09-13T01:51:26;100545.84;;;6.36;83.84
59417;BME280;45222;52.458;20.914;2022-09-13T01:54:35;100540.08;;;6.35;83.95
59417;BME280;45222;52.458;20.914;2022-09-13T01:57:45;100536.55;;;6.34;83.91
59417;BME280;45222;52.458;20.914;2022-09-13T02:00:59;100533.36;;;6.34;83.80
59417;BME280;45222;52.458;20.914;2022-09-13T02:04:07;100530.36;;;6.27;83.28
59417;BME280;45222;52.458;20.914;2022-09-13T02:07:15;100529.15;;;6.21;83.31
59417;BME280;45222;52.458;20.914;2022-09-13T02:10:23;100530.77;;;6.13;83.08
59417;BME280;45222;52.458;20.914;2022-09-13T02:13:34;100522.80;;;6.07;83.18
59417;BME280;45222;52.458;20.914;2022-09-13T02:16:41;100525.52;;;6.05;83.50
59417;BME280;45222;52.458;20.914;2022-09-13T02:19:49;100519.30;;;6.07;83.51
59417;BME280;45222;52.458;20.914;2022-09-13T02:22:56;100520.71;;;6.06;83.00
59417;BME280;45222;52.458;20.914;2022-09-13T02:26:02;100518.77;;;5.99;82.43
59417;BME280;45222;52.458;20.914;2022-09-13T02:29:08;100517.23;;;5.90;82.80
59417;BME280;45222;52.458;20.914;2022-09-13T02:32:16;100510.98;;;5.87;83.00
59417;BME280;45222;52.458;20.914;2022-09-13T02:35:23;100504.70;;;5.83;82.66
59417;BME280;45222;52.458;20.914;2022-09-13T02:38:30;100508.50;;;5.73;82.23
59417;BME280;45222;52.458;20.914;2022-09-13T02:41:38;100509.12;;;5.63;82.47
59417;BME280;45222;52.458;20.914;2022-09-13T02:44:45;100506.65;;;5.56;82.58
59417;BME280;45222;52.458;20.914;2022-09-13T02:47:55;100510.14;;;5.51;82.48
59417;BME280;45222;52.458;20.914;2022-09-13T02:51:02;100509.35;;;5.47;82.82
59417;BME280;45222;52.458;20.914;2022-09-13T02:54:16;100506.58;;;5.45;83.05
59417;BME280;45222;52.458;20.914;2022-09-13T02:57:27;100503.39;;;5.45;82.83
59417;BME280;45222;52.458;20.914;2022-09-13T03:00:32;100493.80;;;5.41;82.61
59417;BME280;45222;52.458;20.914;2022-09-13T03:03:35;100493.30;;;5.39;82.54
59417;BME280;45222;52.458;20.914;2022-09-13T03:06:39;100488.42;;;5.37;82.72
59417;BME280;45222;52.458;20.914;2022-09-13T03:09:46;100485.31;;;5.35;82.63
59417;BME280;45222;52.458;20.914;2022-09-13T03:13:18;100486.44;;;5.32;83.09
59417;BME280;45222;52.458;20.914;2022-09-13T03:16:35;100481.06;;;5.29;83.19
59417;BME280;45222;52.458;20.914;2022-09-13T03:19:50;100479.28;;;5.29;83.31
59417;BME280;45222;52.458;20.914;2022-09-13T03:23:13;100481.58;;;5.29;83.30
59417;BME280;45222;52.458;20.914;2022-09-13T03:26:29;100476.39;;;5.25;83.11
59417;BME280;45222;52.458;20.914;2022-09-13T03:29:40;100471.80;;;5.24;83.11
59417;BME280;45222;52.458;20.914;2022-09-13T03:32:50;100474.27;;;5.25;83.33
59417;BME280;45222;52.458;20.914;2022-09-13T03:36:03;100472.73;;;5.22;83.51
59417;BME280;45222;52.458;20.914;2022-09-13T03:39:18;100469.86;;;5.25;83.39
59417;BME280;45222;52.458;20.914;2022-09-13T03:42:26;100467.05;;;5.24;82.96
59417;BME280;45222;52.458;20.914;2022-09-13T03:45:32;100462.86;;;5.23;82.63
59417;BME280;45222;52.458;20.914;2022-09-13T03:48:38;100458.23;;;5.18;82.78
59417;BME280;45222;52.458;20.914;2022-09-13T03:51:43;100463.59;;;5.15;82.79
59417;BME280;45222;52.458;20.914;2022-09-13T03:54:47;100465.77;;;5.12;82.95
59417;BME280;45222;52.458;20.914;2022-09-13T03:57:49;100462.80;;;5.11;82.86
59417;BME280;45222;52.458;20.914;2022-09-13T04:00:52;100458.94;;;5.11;83.08
59417;BME280;45222;52.458;20.914;2022-09-13T04:03:55;100458.39;;;5.11;82.71
59417;BME280;45222;52.458;20.914;2022-09-13T04:06:58;100453.98;;;5.11;82.58
59417;BME280;45222;52.458;20.914;2022-09-13T04:10:05;100454.05;;;5.01;82.29
59417;BME280;45222;52.458;20.914;2022-09-13T04:13:08;100457.37;;;4.95;82.64
59417;BME280;45222;52.458;20.914;2022-09-13T04:16:12;100461.61;;;4.95;82.80
59417;BME280;45222;52.458;20.914;2022-09-13T04:19:14;100459.56;;;4.92;82.98
59417;BME280;45222;52.458;20.914;2022-09-13T04:22:17;100457.77;;;4.86;83.18
59417;BME280;45222;52.458;20.914;2022-09-13T04:25:21;100457.48;;;4.82;83.50
59417;BME280;45222;52.458;20.914;2022-09-13T04:28:24;100448.45;;;4.85;83.57
59417;BME280;45222;52.458;20.914;2022-09-13T04:31:29;100452.55;;;4.90;83.44
59417;BME280;45222;52.458;20.914;2022-09-13T04:34:39;100452.23;;;4.95;83.48
59417;BME280;45222;52.458;20.914;2022-09-13T04:37:46;100459.48;;;5.03;84.00
59417;BME280;45222;52.458;20.914;2022-09-13T04:40:53;100462.94;;;5.12;84.03
59417;BME280;45222;52.458;20.914;2022-09-13T04:43:56;100463.59;;;5.15;83.64
59417;BME280;45222;52.458;20.914;2022-09-13T04:46:59;100462.34;;;5.15;83.77
59417;BME280;45222;52.458;20.914;2022-09-13T04:50:02;100464.40;;;5.18;83.83
59417;BME280;45222;52.458;20.914;2022-09-13T04:53:05;100464.78;;;5.23;84.08
59417;BME280;45222;52.458;20.914;2022-09-13T04:56:07;100464.66;;;5.28;83.98
59417;BME280;45222;52.458;20.914;2022-09-13T04:59:12;100466.27;;;5.35;84.76
59417;BME280;45222;52.458;20.914;2022-09-13T05:02:15;100462.66;;;5.45;84.72
59417;BME280;45222;52.458;20.914;2022-09-13T05:05:17;100465.84;;;5.52;84.72
59417;BME280;45222;52.458;20.914;2022-09-13T05:08:20;100455.19;;;5.60;84.49
59417;BME280;45222;52.458;20.914;2022-09-13T05:11:24;100453.05;;;5.69;84.49
59417;BME280;45222;52.458;20.914;2022-09-13T05:14:27;100446.75;;;5.79;84.77
59417;BME280;45222;52.458;20.914;2022-09-13T05:17:30;100447.89;;;5.89;85.00
59417;BME280;45222;52.458;20.914;2022-09-13T05:20:33;100448.52;;;5.98;85.20
59417;BME280;45222;52.458;20.914;2022-09-13T05:23:36;100448.26;;;6.09;85.41
59417;BME280;45222;52.458;20.914;2022-09-13T05:26:39;100447.89;;;6.21;85.52
59417;BME280;45222;52.458;20.914;2022-09-13T05:29:42;100446.63;;;6.34;85.62
59417;BME280;45222;52.458;20.914;2022-09-13T05:32:45;100452.20;;;6.49;85.75
59417;BME280;45222;52.458;20.914;2022-09-13T05:35:47;100448.56;;;6.64;85.95
59417;BME280;45222;52.458;20.914;2022-09-13T05:38:51;100445.14;;;6.78;86.27
59417;BME280;45222;52.458;20.914;2022-09-13T05:41:54;100445.69;;;6.88;86.37
59417;BME280;45222;52.458;20.914;2022-09-13T05:44:56;100441.09;;;6.99;86.29
59417;BME280;45222;52.458;20.914;2022-09-13T05:47:59;100436.65;;;7.11;86.20
59417;BME280;45222;52.458;20.914;2022-09-13T05:51:07;100435.02;;;7.28;86.34
59417;BME280;45222;52.458;20.914;2022-09-13T05:54:12;100432.48;;;7.46;86.26
59417;BME280;45222;52.458;20.914;2022-09-13T05:57:14;100431.70;;;7.58;86.43
59417;BME280;45222;52.458;20.914;2022-09-13T06:00:17;100423.55;;;7.68;86.22
59417;BME280;45222;52.458;20.914;2022-09-13T06:03:20;100427.26;;;7.78;86.29
59417;BME280;45222;52.458;20.914;2022-09-13T06:06:23;100422.84;;;7.88;86.35
59417;BME280;45222;52.458;20.914;2022-09-13T06:09:26;100418.85;;;8.00;86.51
59417;BME280;45222;52.458;20.914;2022-09-13T06:12:28;100417.73;;;8.16;86.63
59417;BME280;45222;52.458;20.914;2022-09-13T06:15:31;100411.39;;;8.34;86.65
59417;BME280;45222;52.458;20.914;2022-09-13T06:18:34;100415.65;;;8.47;86.35
59417;BME280;45222;52.458;20.914;2022-09-13T06:21:37;100412.03;;;8.59;86.60
59417;BME280;45222;52.458;20.914;2022-09-13T06:24:39;100412.17;;;8.74;86.41
59417;BME280;45222;52.458;20.914;2022-09-13T06:27:42;100409.22;;;8.90;86.41
59417;BME280;45222;52.458;20.914;2022-09-13T06:30:44;100408.73;;;9.02;86.23
59417;BME280;45222;52.458;20.914;2022-09-13T06:33:48;100411.36;;;9.15;86.42
59417;BME280;45222;52.458;20.914;2022-09-13T06:36:50;100416.70;;;9.28;86.05
59417;BME280;45222;52.458;20.914;2022-09-13T06:39:53;100414.10;;;9.38;85.67
59417;BME280;45222;52.458;20.914;2022-09-13T06:42:56;100413.23;;;9.43;85.11
59417;BME280;45222;52.458;20.914;2022-09-13T06:46:02;100409.89;;;9.50;85.54
59417;BME280;45222;52.458;20.914;2022-09-13T06:49:06;100411.38;;;9.60;85.65
59417;BME280;45222;52.458;20.914;2022-09-13T06:52:09;100408.67;;;9.78;85.68
59417;BME280;45222;52.458;20.914;2022-09-13T06:55:12;100408.59;;;9.92;84.94
59417;BME280;45222;52.458;20.914;2022-09-13T06:58:15;100408.09;;;10.07;85.00
59417;BME280;45222;52.458;20.914;2022-09-13T07:01:19;100406.71;;;10.21;84.81
59417;BME280;45222;52.458;20.914;2022-09-13T07:04:26;100406.16;;;10.33;84.70
59417;BME280;45222;52.458;20.914;2022-09-13T07:07:34;100405.90;;;10.51;84.58
59417;BME280;45222;52.458;20.914;2022-09-13T07:10:37;100402.18;;;10.61;84.26
59417;BME280;45222;52.458;20.914;2022-09-13T07:13:40;100402.06;;;10.79;84.46
59417;BME280;45222;52.458;20.914;2022-09-13T07:16:43;100402.56;;;10.98;84.28
59417;BME280;45222;52.458;20.914;2022-09-13T07:19:47;100400.92;;;11.13;83.86
59417;BME280;45222;52.458;20.914;2022-09-13T07:22:50;100399.58;;;11.25;83.49
59417;BME280;45222;52.458;20.914;2022-09-13T07:25:56;100397.75;;;11.34;82.93
59417;BME280;45222;52.458;20.914;2022-09-13T07:29:05;100397.64;;;11.43;82.89
59417;BME280;45222;52.458;20.914;2022-09-13T07:32:09;100398.94;;;11.52;82.69
59417;BME280;45222;52.458;20.914;2022-09-13T07:35:11;100396.19;;;11.60;82.12
59417;BME280;45222;52.458;20.914;2022-09-13T07:38:14;100393.63;;;11.65;82.16
59417;BME280;45222;52.458;20.914;2022-09-13T07:41:18;100396.92;;;11.80;82.57
59417;BME280;45222;52.458;20.914;2022-09-13T07:44:21;100394.89;;;11.95;82.41
59417;BME280;45222;52.458;20.914;2022-09-13T07:47:24;100388.77;;;12.10;82.35
59417;BME280;45222;52.458;20.914;2022-09-13T07:50:26;100385.63;;;12.25;82.09
59417;BME280;45222;52.458;20.914;2022-09-13T07:53:30;100387.23;;;12.42;81.68
59417;BME280;45222;52.458;20.914;2022-09-13T07:56:34;100379.70;;;12.55;81.63
59417;BME280;45222;52.458;20.914;2022-09-13T07:59:38;100378.25;;;12.74;81.34
59417;BME280;45222;52.458;20.914;2022-09-13T08:02:41;100377.05;;;12.92;81.60
59417;BME280;45222;52.458;20.914;2022-09-13T08:05:43;100381.35;;;13.16;81.51
59417;BME280;45222;52.458;20.914;2022-09-13T08:08:46;100377.30;;;13.40;80.77
59417;BME280;45222;52.458;20.914;2022-09-13T08:11:50;100380.44;;;13.59;79.88
59417;BME280;45222;52.458;20.914;2022-09-13T08:14:54;100382.63;;;13.79;79.86
59417;BME280;45222;52.458;20.914;2022-09-13T08:17:57;100373.91;;;13.96;78.54
59417;BME280;45222;52.458;20.914;2022-09-13T08:21:00;100370.64;;;14.13;78.14
59417;BME280;45222;52.458;20.914;2022-09-13T08:24:04;100371.59;;;14.33;77.44
59417;BME280;45222;52.458;20.914;2022-09-13T08:27:07;100371.89;;;14.53;76.11
59417;BME280;45222;52.458;20.914;2022-09-13T08:30:12;100366.58;;;14.68;75.81
59417;BME280;45222;52.458;20.914;2022-09-13T08:33:15;100365.03;;;14.90;75.62
59417;BME280;45222;52.458;20.914;2022-09-13T08:36:17;100363.58;;;15.09;74.04
59417;BME280;45222;52.458;20.914;2022-09-13T08:39:21;100358.58;;;15.25;72.77
59417;BME280;45222;52.458;20.914;2022-09-13T08:42:31;100356.95;;;15.41;72.48
59417;BME280;45222;52.458;20.914;2022-09-13T08:45:36;100354.60;;;15.62;71.55
59417;BME280;45222;52.458;20.914;2022-09-13T08:48:43;100353.73;;;15.82;70.10
59417;BME280;45222;52.458;20.914;2022-09-13T08:51:50;100350.06;;;16.01;69.34
59417;BME280;45222;52.458;20.914;2022-09-13T08:54:54;100344.98;;;16.22;68.52
59417;BME280;45222;52.458;20.914;2022-09-13T08:58:03;100338.95;;;16.43;67.51
59417;BME280;45222;52.458;20.914;2022-09-13T09:01:21;100331.95;;;16.63;65.88
59417;BME280;45222;52.458;20.914;2022-09-13T09:04:35;100331.72;;;16.80;64.29
59417;BME280;45222;52.458;20.914;2022-09-13T09:07:43;100329.75;;;16.85;63.29
59417;BME280;45222;52.458;20.914;2022-09-13T09:10:50;100331.36;;;16.92;63.69
59417;BME280;45222;52.458;20.914;2022-09-13T09:13:58;100331.52;;;17.00;63.45
59417;BME280;45222;52.458;20.914;2022-09-13T09:17:05;100322.07;;;17.07;63.36
59417;BME280;45222;52.458;20.914;2022-09-13T09:20:20;100316.14;;;17.18;62.20
59417;BME280;45222;52.458;20.914;2022-09-13T09:23:27;100307.63;;;17.33;61.94
59417;BME280;45222;52.458;20.914;2022-09-13T09:26:33;100307.91;;;17.43;60.14
59417;BME280;45222;52.458;20.914;2022-09-13T09:29:36;100305.50;;;17.51;60.74
59417;BME280;45222;52.458;20.914;2022-09-13T09:32:49;100308.39;;;17.58;60.13
59417;BME280;45222;52.458;20.914;2022-09-13T09:35:58;100303.63;;;17.66;59.41
59417;BME280;45222;52.458;20.914;2022-09-13T09:39:04;100291.29;;;17.67;58.65
59417;BME280;45222;52.458;20.914;2022-09-13T09:42:11;100287.95;;;17.73;58.55
59417;BME280;45222;52.458;20.914;2022-09-13T09:45:24;100284.49;;;17.76;58.81
59417;BME280;45222;52.458;20.914;2022-09-13T09:48:32;100278.80;;;17.82;58.12
59417;BME280;45222;52.458;20.914;2022-09-13T09:51:42;100276.50;;;17.90;58.46
59417;BME280;45222;52.458;20.914;2022-09-13T09:54:58;100275.82;;;18.13;59.43
59417;BME280;45222;52.458;20.914;2022-09-13T09:58:08;100278.05;;;18.36;59.67
59417;BME280;45222;52.458;20.914;2022-09-13T10:01:21;100270.52;;;18.55;57.55
59417;BME280;45222;52.458;20.914;2022-09-13T10:04:25;100263.23;;;18.67;56.20
59417;BME280;45222;52.458;20.914;2022-09-13T10:07:30;100257.69;;;18.75;57.03
59417;BME280;45222;52.458;20.914;2022-09-13T10:10:39;100257.29;;;18.80;56.12
59417;BME280;45222;52.458;20.914;2022-09-13T10:13:57;100255.05;;;18.76;55.40
59417;BME280;45222;52.458;20.914;2022-09-13T10:17:19;100254.80;;;18.82;55.98
59417;BME280;45222;52.458;20.914;2022-09-13T10:20:30;100250.45;;;18.86;55.36
59417;BME280;45222;52.458;20.914;2022-09-13T10:23:47;100248.02;;;18.85;55.01
59417;BME280;45222;52.458;20.914;2022-09-13T10:26:59;100246.51;;;18.84;55.93
59417;BME280;45222;52.458;20.914;2022-09-13T10:30:35;100242.77;;;18.85;55.22
59417;BME280;45222;52.458;20.914;2022-09-13T10:33:57;100246.02;;;18.87;54.17
59417;BME280;45222;52.458;20.914;2022-09-13T10:37:03;100238.86;;;18.93;55.11
59417;BME280;45222;52.458;20.914;2022-09-13T10:40:16;100233.60;;;18.98;54.86
59417;BME280;45222;52.458;20.914;2022-09-13T10:43:19;100231.34;;;19.01;55.53
59417;BME280;45222;52.458;20.914;2022-09-13T10:46:23;100224.98;;;19.07;54.56
59417;BME280;45222;52.458;20.914;2022-09-13T10:49:38;100222.17;;;19.10;54.23
59417;BME280;45222;52.458;20.914;2022-09-13T10:52:44;100223.62;;;19.14;54.14
59417;BME280;45222;52.458;20.914;2022-09-13T10:55:56;100216.61;;;19.18;54.76
59417;BME280;45222;52.458;20.914;2022-09-13T10:59:28;100213.91;;;19.20;54.46
59417;BME280;45222;52.458;20.914;2022-09-13T11:06:15;100211.02;;;19.13;54.37
59417;BME280;45222;52.458;20.914;2022-09-13T11:09:24;100204.34;;;19.13;54.35
59417;BME280;45222;52.458;20.914;2022-09-13T11:12:37;100201.04;;;19.14;54.28
59417;BME280;45222;52.458;20.914;2022-09-13T11:15:50;100200.87;;;19.14;54.72
59417;BME280;45222;52.458;20.914;2022-09-13T11:19:09;100197.15;;;19.11;54.70
59417;BME280;45222;52.458;20.914;2022-09-13T11:22:28;100193.55;;;19.03;54.41
59417;BME280;45222;52.458;20.914;2022-09-13T11:25:43;100198.02;;;18.97;54.89
59417;BME280;45222;52.458;20.914;2022-09-13T11:28:56;100194.02;;;18.97;55.10
59417;BME280;45222;52.458;20.914;2022-09-13T11:32:16;100190.29;;;18.98;55.56
59417;BME280;45222;52.458;20.914;2022-09-13T11:35:41;100190.39;;;19.10;56.00
59417;BME280;45222;52.458;20.914;2022-09-13T11:38:57;100182.92;;;19.23;54.72
59417;BME280;45222;52.458;20.914;2022-09-13T11:42:20;100174.39;;;19.33;55.11
59417;BME280;45222;52.458;20.914;2022-09-13T11:45:27;100169.56;;;19.44;55.42
59417;BME280;45222;52.458;20.914;2022-09-13T11:48:43;100164.91;;;19.54;55.23
59417;BME280;45222;52.458;20.914;2022-09-13T11:51:59;100157.58;;;19.72;55.65
59417;BME280;45222;52.458;20.914;2022-09-13T11:55:14;100148.26;;;19.85;55.26
59417;BME280;45222;52.458;20.914;2022-09-13T11:58:22;100142.41;;;19.90;54.10
59417;BME280;45222;52.458;20.914;2022-09-13T12:01:28;100136.95;;;19.90;54.77
59417;BME280;45222;52.458;20.914;2022-09-13T12:04:40;100126.14;;;19.86;54.73
59417;BME280;45222;52.458;20.914;2022-09-13T12:07:52;100119.45;;;19.86;55.25
59417;BME280;45222;52.458;20.914;2022-09-13T12:11:02;100112.65;;;19.83;54.72
59417;BME280;45222;52.458;20.914;2022-09-13T12:14:12;100102.00;;;19.76;54.63
59417;BME280;45222;52.458;20.914;2022-09-13T12:17:24;100102.43;;;19.71;56.22
59417;BME280;45222;52.458;20.914;2022-09-13T12:20:32;100095.27;;;19.64;56.14
59417;BME280;45222;52.458;20.914;2022-09-13T12:23:40;100091.13;;;19.56;56.36
59417;BME280;45222;52.458;20.914;2022-09-13T12:26:48;100082.16;;;19.41;56.68
59417;BME280;45222;52.458;20.914;2022-09-13T12:29:56;100079.93;;;19.26;56.66
59417;BME280;45222;52.458;20.914;2022-09-13T12:33:05;100075.13;;;19.14;56.98
59417;BME280;45222;52.458;20.914;2022-09-13T12:36:32;100080.45;;;18.93;56.97
59417;BME280;45222;52.458;20.914;2022-09-13T12:39:51;100080.86;;;18.76;57.63
59417;BME280;45222;52.458;20.914;2022-09-13T12:50:49;100076.58;;;18.57;59.67
59417;BME280;45222;52.458;20.914;2022-09-13T12:54:22;100073.20;;;18.48;59.61
59417;BME280;45222;52.458;20.914;2022-09-13T12:57:41;100067.37;;;18.37;59.88
59417;BME280;45222;52.458;20.914;2022-09-13T13:01:04;100056.09;;;18.25;60.18
59417;BME280;45222;52.458;20.914;2022-09-13T13:04:16;100051.20;;;18.17;61.38
59417;BME280;45222;52.458;20.914;2022-09-13T13:07:24;100045.99;;;18.09;61.45
59417;BME280;45222;52.458;20.914;2022-09-13T13:10:33;100055.30;;;17.98;61.67
59417;BME280;45222;52.458;20.914;2022-09-13T13:13:42;100056.70;;;17.88;61.70
59417;BME280;45222;52.458;20.914;2022-09-13T13:16:48;100042.73;;;17.81;62.25
59417;BME280;45222;52.458;20.914;2022-09-13T13:19:54;100031.08;;;17.74;62.43
59417;BME280;45222;52.458;20.914;2022-09-13T13:23:13;100025.02;;;17.69;63.06
59417;BME280;45222;52.458;20.914;2022-09-13T13:26:45;100022.70;;;17.64;63.98
59417;BME280;45222;52.458;20.914;2022-09-13T13:30:38;100023.81;;;17.62;64.14
59417;BME280;45222;52.458;20.914;2022-09-13T13:33:48;100025.51;;;17.63;64.50
59417;BME280;45222;52.458;20.914;2022-09-13T13:36:59;100024.39;;;17.67;64.66
59417;BME280;45222;52.458;20.914;2022-09-13T13:40:22;100022.30;;;17.73;64.81
59417;BME280;45222;52.458;20.914;2022-09-13T13:43:31;100027.92;;;17.75;65.99
59417;BME280;45222;52.458;20.914;2022-09-13T13:46:37;100028.77;;;17.74;67.13
59417;BME280;45222;52.458;20.914;2022-09-13T13:49:48;100032.61;;;17.73;67.13
59417;BME280;45222;52.458;20.914;2022-09-13T13:52:57;100035.33;;;17.68;67.25
59417;BME280;45222;52.458;20.914;2022-09-13T13:56:18;100029.13;;;17.67;67.94
59417;BME280;45222;52.458;20.914;2022-09-13T13:59:26;100019.25;;;17.67;68.64
59417;BME280;45222;52.458;20.914;2022-09-13T14:02:40;100017.77;;;17.67;69.75
59417;BME280;45222;52.458;20.914;2022-09-13T14:05:55;100015.98;;;17.74;69.71
59417;BME280;45222;52.458;20.914;2022-09-13T14:09:10;100013.77;;;17.81;68.88
59417;BME280;45222;52.458;20.914;2022-09-13T14:12:29;100006.11;;;17.88;68.14
59417;BME280;45222;52.458;20.914;2022-09-13T14:15:51;100001.52;;;17.96;68.77
59417;BME280;45222;52.458;20.914;2022-09-13T14:19:16;99990.05;;;18.02;68.74
59417;BME280;45222;52.458;20.914;2022-09-13T14:22:33;99981.77;;;18.04;68.77
59417;BME280;45222;52.458;20.914;2022-09-13T14:25:38;99976.02;;;18.06;67.96
59417;BME280;45222;52.458;20.914;2022-09-13T14:28:44;99968.63;;;18.09;68.06
59417;BME280;45222;52.458;20.914;2022-09-13T14:31:51;99964.11;;;18.11;67.38
59417;BME280;45222;52.458;20.914;2022-09-13T14:35:03;99958.77;;;18.12;66.84
59417;BME280;45222;52.458;20.914;2022-09-13T14:38:19;99954.95;;;18.15;66.83
59417;BME280;45222;52.458;20.914;2022-09-13T14:41:32;99954.63;;;18.17;66.21
59417;BME280;45222;52.458;20.914;2022-09-13T14:44:38;99951.35;;;18.15;66.11
59417;BME280;45222;52.458;20.914;2022-09-13T14:47:52;99949.52;;;18.13;66.13
59417;BME280;45222;52.458;20.914;2022-09-13T14:51:01;99941.91;;;18.12;66.47
59417;BME280;45222;52.458;20.914;2022-09-13T14:54:13;99936.23;;;18.11;66.36
59417;BME280;45222;52.458;20.914;2022-09-13T14:57:24;99927.67;;;18.10;66.46
59417;BME280;45222;52.458;20.914;2022-09-13T15:00:34;99929.89;;;18.11;66.26
59417;BME280;45222;52.458;20.914;2022-09-13T15:03:43;99930.47;;;18.13;66.37
59417;BME280;45222;52.458;20.914;2022-09-13T15:07:07;99929.95;;;18.13;66.45
59417;BME280;45222;52.458;20.914;2022-09-13T15:10:23;99926.64;;;18.09;66.07
59417;BME280;45222;52.458;20.914;2022-09-13T15:13:29;99924.51;;;18.05;66.34
59417;BME280;45222;52.458;20.914;2022-09-13T15:16:45;99922.02;;;18.00;66.29
59417;BME280;45222;52.458;20.914;2022-09-13T15:20:03;99921.73;;;17.95;66.23
59417;BME280;45222;52.458;20.914;2022-09-13T15:23:14;99917.69;;;17.90;67.32
59417;BME280;45222;52.458;20.914;2022-09-13T15:26:22;99914.06;;;17.88;67.81
59417;BME280;45222;52.458;20.914;2022-09-13T15:29:29;99915.80;;;17.84;68.04
59417;BME280;45222;52.458;20.914;2022-09-13T15:32:42;99911.88;;;17.82;68.35
59417;BME280;45222;52.458;20.914;2022-09-13T15:35:48;99910.70;;;17.79;68.80
59417;BME280;45222;52.458;20.914;2022-09-13T15:39:12;99906.27;;;17.76;68.99
59417;BME280;45222;52.458;20.914;2022-09-13T15:42:20;99911.08;;;17.70;68.95
59417;BME280;45222;52.458;20.914;2022-09-13T15:45:25;99910.15;;;17.64;68.90
59417;BME280;45222;52.458;20.914;2022-09-13T15:48:36;99913.51;;;17.56;68.76
59417;BME280;45222;52.458;20.914;2022-09-13T15:51:51;99910.94;;;17.50;68.86
59417;BME280;45222;52.458;20.914;2022-09-13T15:55:01;99898.81;;;17.48;69.37
59417;BME280;45222;52.458;20.914;2022-09-13T15:58:07;99893.34;;;17.46;70.17
59417;BME280;45222;52.458;20.914;2022-09-13T16:01:14;99889.29;;;17.46;70.36
59417;BME280;45222;52.458;20.914;2022-09-13T16:04:21;99882.63;;;17.43;70.53
59417;BME280;45222;52.458;20.914;2022-09-13T16:07:26;99880.03;;;17.40;70.31
59417;BME280;45222;52.458;20.914;2022-09-13T16:10:32;99877.28;;;17.34;69.94
59417;BME280;45222;52.458;20.914;2022-09-13T16:13:37;99870.80;;;17.28;69.91
59417;BME280;45222;52.458;20.914;2022-09-13T16:16:43;99867.19;;;17.22;69.78
59417;BME280;45222;52.458;20.914;2022-09-13T16:19:49;99861.63;;;17.17;70.04
59417;BME280;45222;52.458;20.914;2022-09-13T16:22:54;99855.70;;;17.13;70.34
59417;BME280;45222;52.458;20.914;2022-09-13T16:26:00;99860.76;;;17.08;70.27
59417;BME280;45222;52.458;20.914;2022-09-13T16:29:06;99866.16;;;17.06;70.13
59417;BME280;45222;52.458;20.914;2022-09-13T16:32:12;99863.16;;;17.03;70.00
59417;BME280;45222;52.458;20.914;2022-09-13T16:35:17;99866.75;;;16.99;70.11